sensor_id;sensor_type;location;lat;lon;timestamp;P1;durP1;ratioP1;P2;durP2;ratioP2
11384;SDS011;5747;56.748;13.882;2024-02-04T00:00:12;12.80;;;3.03;;
11384;SDS011;5747;56.748;13.882;2024-02-04T00:02:42;18.13;;;3.47;;
11384;SDS011;5747;56.748;13.882;2024-02-04T00:05:11;13.67;;;2.80;;
11384;SDS011;5747;56.748;13.882;2024-02-04T00:07:39;16.10;;;3.43;;
11384;SDS011;5747;56.748;13.882;2024-02-04T00:10:07;14.27;;;2.20;;
11384;SDS011;5747;56.748;13.882;2024-02-04T00:12:36;18.20;;;2.30;;
11384;SDS011;5747;56.748;13.882;2024-02-04T00:15:04;19.83;;;3.10;;
11384;SDS011;5747;56.748;13.882;2024-02-04T00:17:32;11.67;;;2.57;;
11384;SDS011;5747;56.748;13.882;2024-02-04T00:20:02;14.80;;;2.30;;
11384;SDS011;5747;56.748;13.882;2024-02-04T00:22:32;12.47;;;3.27;;
11384;SDS011;5747;56.748;13.882;2024-02-04T00:25:01;17.47;;;2.90;;
11384;SDS011;5747;56.748;13.882;2024-02-04T00:27:31;13.33;;;2.70;;
11384;SDS011;5747;56.748;13.882;2024-02-04T00:30:00;19.30;;;3.27;;
11384;SDS011;5747;56.748;13.882;2024-02-04T00:32:28;13.80;;;2.83;;
11384;SDS011;5747;56.748;13.882;2024-02-04T00:34:56;13.70;;;2.60;;
11384;SDS011;5747;56.748;13.882;2024-02-04T00:37:26;22.20;;;2.70;;
11384;SDS011;5747;56.748;13.882;2024-02-04T00:39:54;11.93;;;2.47;;
11384;SDS011;5747;56.748;13.882;2024-02-04T00:42:22;12.20;;;2.47;;
11384;SDS011;5747;56.748;13.882;2024-02-04T00:44:51;15.60;;;3.10;;
11384;SDS011;5747;56.748;13.882;2024-02-04T00:47:19;14.80;;;3.03;;
11384;SDS011;5747;56.748;13.882;2024-02-04T00:49:47;12.03;;;2.07;;
11384;SDS011;5747;56.748;13.882;2024-02-04T00:52:15;9.67;;;2.60;;
11384;SDS011;5747;56.748;13.882;2024-02-04T00:54:45;19.17;;;2.90;;
11384;SDS011;5747;56.748;13.882;2024-02-04T00:57:13;14.77;;;2.90;;
11384;SDS011;5747;56.748;13.882;2024-02-04T00:59:41;9.97;;;2.33;;
11384;SDS011;5747;56.748;13.882;2024-02-04T01:02:09;13.30;;;2.70;;
11384;SDS011;5747;56.748;13.882;2024-02-04T01:04:37;17.10;;;3.00;;
11384;SDS011;5747;56.748;13.882;2024-02-04T01:07:05;15.57;;;2.23;;
11384;SDS011;5747;56.748;13.882;2024-02-04T01:09:34;12.27;;;2.30;;
11384;SDS011;5747;56.748;13.882;2024-02-04T01:12:03;10.43;;;2.70;;
11384;SDS011;5747;56.748;13.882;2024-02-04T01:14:32;10.43;;;2.77;;
11384;SDS011;5747;56.748;13.882;2024-02-04T01:17:00;11.47;;;2.73;;
11384;SDS011;5747;56.748;13.882;2024-02-04T01:19:28;17.23;;;2.83;;
11384;SDS011;5747;56.748;13.882;2024-02-04T01:21:56;13.20;;;2.50;;
11384;SDS011;5747;56.748;13.882;2024-02-04T01:24:25;21.17;;;3.47;;
11384;SDS011;5747;56.748;13.882;2024-02-04T01:26:53;12.30;;;2.80;;
11384;SDS011;5747;56.748;13.882;2024-02-04T01:29:23;16.43;;;2.67;;
11384;SDS011;5747;56.748;13.882;2024-02-04T01:31:51;15.87;;;2.83;;
11384;SDS011;5747;56.748;13.882;2024-02-04T01:34:19;18.00;;;3.37;;
11384;SDS011;5747;56.748;13.882;2024-02-04T01:36:47;19.87;;;3.27;;
11384;SDS011;5747;56.748;13.882;2024-02-04T01:39:15;14.47;;;2.70;;
11384;SDS011;5747;56.748;13.882;2024-02-04T01:41:44;13.20;;;3.10;;
11384;SDS011;5747;56.748;13.882;2024-02-04T01:44:12;11.07;;;2.30;;
11384;SDS011;5747;56.748;13.882;2024-02-04T01:46:43;17.30;;;3.13;;
11384;SDS011;5747;56.748;13.882;2024-02-04T01:49:12;14.10;;;2.57;;
11384;SDS011;5747;56.748;13.882;2024-02-04T01:51:40;17.67;;;2.93;;
11384;SDS011;5747;56.748;13.882;2024-02-04T01:54:09;24.13;;;3.63;;
11384;SDS011;5747;56.748;13.882;2024-02-04T01:56:37;19.47;;;3.20;;
11384;SDS011;5747;56.748;13.882;2024-02-04T01:59:06;20.00;;;3.20;;
11384;SDS011;5747;56.748;13.882;2024-02-04T02:01:34;16.30;;;2.83;;
11384;SDS011;5747;56.748;13.882;2024-02-04T02:04:04;21.13;;;3.17;;
11384;SDS011;5747;56.748;13.882;2024-02-04T02:06:32;20.67;;;3.57;;
11384;SDS011;5747;56.748;13.882;2024-02-04T02:09:02;18.17;;;3.33;;
11384;SDS011;5747;56.748;13.882;2024-02-04T02:11:32;17.00;;;3.00;;
11384;SDS011;5747;56.748;13.882;2024-02-04T02:14:08;17.27;;;2.90;;
11384;SDS011;5747;56.748;13.882;2024-02-04T02:16:40;25.73;;;4.00;;
11384;SDS011;5747;56.748;13.882;2024-02-04T02:19:15;24.90;;;3.77;;
11384;SDS011;5747;56.748;13.882;2024-02-04T02:22:01;17.40;;;3.50;;
11384;SDS011;5747;56.748;13.882;2024-02-04T02:24:35;23.17;;;3.77;;
11384;SDS011;5747;56.748;13.882;2024-02-04T02:27:06;18.03;;;3.23;;
11384;SDS011;5747;56.748;13.882;2024-02-04T02:29:35;17.60;;;3.67;;
11384;SDS011;5747;56.748;13.882;2024-02-04T02:32:03;22.43;;;3.43;;
11384;SDS011;5747;56.748;13.882;2024-02-04T02:34:32;20.43;;;3.50;;
11384;SDS011;5747;56.748;13.882;2024-02-04T02:37:08;20.70;;;3.10;;
11384;SDS011;5747;56.748;13.882;2024-02-04T02:39:45;11.13;;;2.67;;
11384;SDS011;5747;56.748;13.882;2024-02-04T02:42:17;18.77;;;2.70;;
11384;SDS011;5747;56.748;13.882;2024-02-04T02:44:47;17.27;;;3.67;;
11384;SDS011;5747;56.748;13.882;2024-02-04T02:47:17;17.47;;;2.90;;
11384;SDS011;5747;56.748;13.882;2024-02-04T02:49:46;16.77;;;2.93;;
11384;SDS011;5747;56.748;13.882;2024-02-04T02:52:14;13.20;;;2.47;;
11384;SDS011;5747;56.748;13.882;2024-02-04T02:54:44;11.50;;;2.33;;
11384;SDS011;5747;56.748;13.882;2024-02-04T02:57:12;13.33;;;2.50;;
11384;SDS011;5747;56.748;13.882;2024-02-04T02:59:40;10.97;;;2.10;;
11384;SDS011;5747;56.748;13.882;2024-02-04T03:02:09;8.77;;;1.93;;
11384;SDS011;5747;56.748;13.882;2024-02-04T03:04:38;12.00;;;2.33;;
11384;SDS011;5747;56.748;13.882;2024-02-04T03:07:06;13.67;;;2.60;;
11384;SDS011;5747;56.748;13.882;2024-02-04T03:09:34;9.80;;;2.00;;
11384;SDS011;5747;56.748;13.882;2024-02-04T03:12:04;9.73;;;1.73;;
11384;SDS011;5747;56.748;13.882;2024-02-04T03:14:33;12.50;;;2.40;;
11384;SDS011;5747;56.748;13.882;2024-02-04T03:17:02;14.60;;;2.73;;
11384;SDS011;5747;56.748;13.882;2024-02-04T03:19:30;14.17;;;2.60;;
11384;SDS011;5747;56.748;13.882;2024-02-04T03:21:58;15.43;;;2.53;;
11384;SDS011;5747;56.748;13.882;2024-02-04T03:24:27;14.97;;;2.30;;
11384;SDS011;5747;56.748;13.882;2024-02-04T03:26:55;18.60;;;2.30;;
11384;SDS011;5747;56.748;13.882;2024-02-04T03:29:25;12.33;;;2.50;;
11384;SDS011;5747;56.748;13.882;2024-02-04T03:31:53;17.73;;;2.60;;
11384;SDS011;5747;56.748;13.882;2024-02-04T03:34:24;16.40;;;3.03;;
11384;SDS011;5747;56.748;13.882;2024-02-04T03:36:52;20.37;;;3.07;;
11384;SDS011;5747;56.748;13.882;2024-02-04T03:39:21;18.60;;;2.80;;
11384;SDS011;5747;56.748;13.882;2024-02-04T03:41:49;23.30;;;3.67;;
11384;SDS011;5747;56.748;13.882;2024-02-04T03:44:18;12.10;;;3.07;;
11384;SDS011;5747;56.748;13.882;2024-02-04T03:46:48;16.93;;;3.27;;
11384;SDS011;5747;56.748;13.882;2024-02-04T03:49:17;17.50;;;2.53;;
11384;SDS011;5747;56.748;13.882;2024-02-04T03:51:45;16.10;;;2.57;;
11384;SDS011;5747;56.748;13.882;2024-02-04T03:54:14;18.80;;;3.07;;
11384;SDS011;5747;56.748;13.882;2024-02-04T03:56:42;20.47;;;2.83;;
11384;SDS011;5747;56.748;13.882;2024-02-04T03:59:10;17.97;;;2.70;;
11384;SDS011;5747;56.748;13.882;2024-02-04T04:01:38;15.20;;;2.83;;
11384;SDS011;5747;56.748;13.882;2024-02-04T04:04:08;17.57;;;2.90;;
11384;SDS011;5747;56.748;13.882;2024-02-04T04:06:36;13.13;;;2.67;;
11384;SDS011;5747;56.748;13.882;2024-02-04T04:09:05;14.00;;;2.53;;
11384;SDS011;5747;56.748;13.882;2024-02-04T04:11:33;18.83;;;2.60;;
11384;SDS011;5747;56.748;13.882;2024-02-04T04:14:01;15.70;;;2.60;;
11384;SDS011;5747;56.748;13.882;2024-02-04T04:16:29;17.93;;;2.27;;
11384;SDS011;5747;56.748;13.882;2024-02-04T04:18:57;13.10;;;2.40;;
11384;SDS011;5747;56.748;13.882;2024-02-04T04:21:27;17.23;;;2.67;;
11384;SDS011;5747;56.748;13.882;2024-02-04T04:23:55;20.07;;;2.70;;
11384;SDS011;5747;56.748;13.882;2024-02-04T04:26:23;22.23;;;2.73;;
11384;SDS011;5747;56.748;13.882;2024-02-04T04:28:52;17.67;;;2.50;;
11384;SDS011;5747;56.748;13.882;2024-02-04T04:31:20;10.63;;;1.83;;
11384;SDS011;5747;56.748;13.882;2024-02-04T04:33:48;11.77;;;1.90;;
11384;SDS011;5747;56.748;13.882;2024-02-04T04:36:16;6.00;;;1.80;;
11384;SDS011;5747;56.748;13.882;2024-02-04T04:38:45;12.20;;;1.93;;
11384;SDS011;5747;56.748;13.882;2024-02-04T04:41:16;7.33;;;1.70;;
11384;SDS011;5747;56.748;13.882;2024-02-04T04:43:44;9.90;;;2.17;;
11384;SDS011;5747;56.748;13.882;2024-02-04T04:46:13;9.33;;;2.20;;
11384;SDS011;5747;56.748;13.882;2024-02-04T04:48:41;14.07;;;2.13;;
11384;SDS011;5747;56.748;13.882;2024-02-04T04:51:10;11.27;;;1.67;;
11384;SDS011;5747;56.748;13.882;2024-02-04T04:53:39;8.30;;;1.87;;
11384;SDS011;5747;56.748;13.882;2024-02-04T04:56:08;10.63;;;1.97;;
11384;SDS011;5747;56.748;13.882;2024-02-04T04:58:36;10.77;;;1.63;;
11384;SDS011;5747;56.748;13.882;2024-02-04T05:01:04;11.70;;;2.13;;
11384;SDS011;5747;56.748;13.882;2024-02-04T05:03:33;18.73;;;2.40;;
11384;SDS011;5747;56.748;13.882;2024-02-04T05:06:01;15.97;;;2.37;;
11384;SDS011;5747;56.748;13.882;2024-02-04T05:08:29;13.67;;;2.27;;
11384;SDS011;5747;56.748;13.882;2024-02-04T05:10:57;17.43;;;2.87;;
11384;SDS011;5747;56.748;13.882;2024-02-04T05:13:26;17.57;;;2.23;;
11384;SDS011;5747;56.748;13.882;2024-02-04T05:15:55;11.07;;;2.07;;
11384;SDS011;5747;56.748;13.882;2024-02-04T05:18:23;9.43;;;1.83;;
11384;SDS011;5747;56.748;13.882;2024-02-04T05:20:53;13.83;;;2.27;;
11384;SDS011;5747;56.748;13.882;2024-02-04T05:23:22;6.03;;;1.60;;
11384;SDS011;5747;56.748;13.882;2024-02-04T05:25:51;8.63;;;2.17;;
11384;SDS011;5747;56.748;13.882;2024-02-04T05:28:19;11.57;;;1.70;;
11384;SDS011;5747;56.748;13.882;2024-02-04T05:30:48;12.53;;;2.03;;
11384;SDS011;5747;56.748;13.882;2024-02-04T05:33:16;8.50;;;1.70;;
11384;SDS011;5747;56.748;13.882;2024-02-04T05:35:45;12.57;;;2.10;;
11384;SDS011;5747;56.748;13.882;2024-02-04T05:38:13;7.30;;;2.10;;
11384;SDS011;5747;56.748;13.882;2024-02-04T05:40:41;9.77;;;1.90;;
11384;SDS011;5747;56.748;13.882;2024-02-04T05:43:09;15.53;;;1.70;;
11384;SDS011;5747;56.748;13.882;2024-02-04T05:45:39;12.07;;;2.03;;
11384;SDS011;5747;56.748;13.882;2024-02-04T05:48:09;10.07;;;1.80;;
11384;SDS011;5747;56.748;13.882;2024-02-04T05:50:38;12.07;;;2.30;;
11384;SDS011;5747;56.748;13.882;2024-02-04T05:53:06;14.23;;;2.23;;
11384;SDS011;5747;56.748;13.882;2024-02-04T05:55:34;14.40;;;2.23;;
11384;SDS011;5747;56.748;13.882;2024-02-04T05:58:03;12.77;;;2.20;;
11384;SDS011;5747;56.748;13.882;2024-02-04T06:00:32;17.60;;;2.40;;
11384;SDS011;5747;56.748;13.882;2024-02-04T06:03:00;12.53;;;2.73;;
11384;SDS011;5747;56.748;13.882;2024-02-04T06:05:29;12.90;;;3.07;;
11384;SDS011;5747;56.748;13.882;2024-02-04T06:07:58;16.00;;;2.60;;
11384;SDS011;5747;56.748;13.882;2024-02-04T06:10:26;18.70;;;2.63;;
11384;SDS011;5747;56.748;13.882;2024-02-04T06:12:54;15.30;;;2.70;;
11384;SDS011;5747;56.748;13.882;2024-02-04T06:15:22;17.07;;;2.57;;
11384;SDS011;5747;56.748;13.882;2024-02-04T06:17:51;10.03;;;2.20;;
11384;SDS011;5747;56.748;13.882;2024-02-04T06:20:19;13.30;;;2.50;;
11384;SDS011;5747;56.748;13.882;2024-02-04T06:22:49;13.97;;;2.07;;
11384;SDS011;5747;56.748;13.882;2024-02-04T06:25:17;12.10;;;2.03;;
11384;SDS011;5747;56.748;13.882;2024-02-04T06:27:45;8.00;;;1.67;;
11384;SDS011;5747;56.748;13.882;2024-02-04T06:30:13;11.73;;;2.43;;
11384;SDS011;5747;56.748;13.882;2024-02-04T06:32:42;12.47;;;2.37;;
11384;SDS011;5747;56.748;13.882;2024-02-04T06:35:11;8.50;;;2.33;;
11384;SDS011;5747;56.748;13.882;2024-02-04T06:37:40;11.20;;;2.00;;
11384;SDS011;5747;56.748;13.882;2024-02-04T06:40:11;12.13;;;2.40;;
11384;SDS011;5747;56.748;13.882;2024-02-04T06:42:39;11.70;;;2.10;;
11384;SDS011;5747;56.748;13.882;2024-02-04T06:45:08;14.07;;;2.40;;
11384;SDS011;5747;56.748;13.882;2024-02-04T06:47:37;18.47;;;3.07;;
11384;SDS011;5747;56.748;13.882;2024-02-04T06:50:06;13.63;;;2.63;;
11384;SDS011;5747;56.748;13.882;2024-02-04T06:52:36;11.30;;;2.40;;
11384;SDS011;5747;56.748;13.882;2024-02-04T06:55:04;11.80;;;2.10;;
11384;SDS011;5747;56.748;13.882;2024-02-04T06:57:34;11.60;;;2.47;;
11384;SDS011;5747;56.748;13.882;2024-02-04T07:00:03;9.27;;;1.63;;
11384;SDS011;5747;56.748;13.882;2024-02-04T07:02:32;5.87;;;1.73;;
11384;SDS011;5747;56.748;13.882;2024-02-04T07:05:00;10.80;;;2.00;;
11384;SDS011;5747;56.748;13.882;2024-02-04T07:07:28;10.70;;;2.07;;
11384;SDS011;5747;56.748;13.882;2024-02-04T07:09:57;12.33;;;1.90;;
11384;SDS011;5747;56.748;13.882;2024-02-04T07:12:25;12.63;;;2.20;;
11384;SDS011;5747;56.748;13.882;2024-02-04T07:14:55;14.00;;;2.00;;
11384;SDS011;5747;56.748;13.882;2024-02-04T07:17:23;12.03;;;2.53;;
11384;SDS011;5747;56.748;13.882;2024-02-04T07:19:51;10.13;;;1.70;;
11384;SDS011;5747;56.748;13.882;2024-02-04T07:22:19;8.63;;;1.90;;
11384;SDS011;5747;56.748;13.882;2024-02-04T07:24:48;10.50;;;2.30;;
11384;SDS011;5747;56.748;13.882;2024-02-04T07:27:16;9.87;;;2.07;;
11384;SDS011;5747;56.748;13.882;2024-02-04T07:29:44;10.90;;;2.30;;
11384;SDS011;5747;56.748;13.882;2024-02-04T07:32:14;19.13;;;3.27;;
11384;SDS011;5747;56.748;13.882;2024-02-04T07:34:43;13.17;;;2.13;;
11384;SDS011;5747;56.748;13.882;2024-02-04T07:37:11;18.80;;;2.93;;
11384;SDS011;5747;56.748;13.882;2024-02-04T07:39:39;20.10;;;3.00;;
11384;SDS011;5747;56.748;13.882;2024-02-04T07:42:07;20.17;;;3.60;;
11384;SDS011;5747;56.748;13.882;2024-02-04T07:44:35;11.77;;;2.67;;
11384;SDS011;5747;56.748;13.882;2024-02-04T07:47:03;16.83;;;3.63;;
11384;SDS011;5747;56.748;13.882;2024-02-04T07:49:33;16.77;;;2.80;;
11384;SDS011;5747;56.748;13.882;2024-02-04T07:52:02;15.50;;;2.73;;
11384;SDS011;5747;56.748;13.882;2024-02-04T07:54:30;17.47;;;2.73;;
11384;SDS011;5747;56.748;13.882;2024-02-04T07:56:59;26.67;;;3.30;;
11384;SDS011;5747;56.748;13.882;2024-02-04T07:59:27;10.83;;;2.00;;
11384;SDS011;5747;56.748;13.882;2024-02-04T08:01:55;13.67;;;2.40;;
11384;SDS011;5747;56.748;13.882;2024-02-04T08:04:23;13.53;;;2.60;;
11384;SDS011;5747;56.748;13.882;2024-02-04T08:06:53;17.93;;;2.63;;
11384;SDS011;5747;56.748;13.882;2024-02-04T08:09:21;19.23;;;2.50;;
11384;SDS011;5747;56.748;13.882;2024-02-04T08:11:50;16.17;;;2.70;;
11384;SDS011;5747;56.748;13.882;2024-02-04T08:14:18;12.70;;;2.80;;
11384;SDS011;5747;56.748;13.882;2024-02-04T08:16:46;20.40;;;3.30;;
11384;SDS011;5747;56.748;13.882;2024-02-04T08:19:14;15.37;;;3.13;;
11384;SDS011;5747;56.748;13.882;2024-02-04T08:21:43;19.23;;;2.97;;
11384;SDS011;5747;56.748;13.882;2024-02-04T08:24:12;14.70;;;2.73;;
11384;SDS011;5747;56.748;13.882;2024-02-04T08:26:40;14.67;;;2.63;;
11384;SDS011;5747;56.748;13.882;2024-02-04T08:29:09;10.07;;;2.10;;
11384;SDS011;5747;56.748;13.882;2024-02-04T08:31:37;15.30;;;2.70;;
11384;SDS011;5747;56.748;13.882;2024-02-04T08:34:06;11.87;;;2.40;;
11384;SDS011;5747;56.748;13.882;2024-02-04T08:36:34;15.80;;;2.27;;
11384;SDS011;5747;56.748;13.882;2024-02-04T08:39:02;16.63;;;2.33;;
11384;SDS011;5747;56.748;13.882;2024-02-04T08:41:32;14.60;;;2.73;;
11384;SDS011;5747;56.748;13.882;2024-02-04T08:44:00;12.80;;;2.80;;
11384;SDS011;5747;56.748;13.882;2024-02-04T08:46:30;18.63;;;2.53;;
11384;SDS011;5747;56.748;13.882;2024-02-04T08:48:58;14.90;;;2.20;;
11384;SDS011;5747;56.748;13.882;2024-02-04T08:51:26;16.83;;;2.53;;
11384;SDS011;5747;56.748;13.882;2024-02-04T08:53:57;16.43;;;2.60;;
11384;SDS011;5747;56.748;13.882;2024-02-04T08:56:25;16.47;;;2.37;;
11384;SDS011;5747;56.748;13.882;2024-02-04T08:58:54;15.30;;;2.60;;
11384;SDS011;5747;56.748;13.882;2024-02-04T09:01:23;20.03;;;3.17;;
11384;SDS011;5747;56.748;13.882;2024-02-04T09:03:51;24.30;;;3.37;;
11384;SDS011;5747;56.748;13.882;2024-02-04T09:06:19;21.70;;;3.17;;
11384;SDS011;5747;56.748;13.882;2024-02-04T09:08:48;16.43;;;2.87;;
11384;SDS011;5747;56.748;13.882;2024-02-04T09:11:16;24.13;;;3.30;;
11384;SDS011;5747;56.748;13.882;2024-02-04T09:13:47;16.73;;;3.07;;
11384;SDS011;5747;56.748;13.882;2024-02-04T09:16:16;25.80;;;3.27;;
11384;SDS011;5747;56.748;13.882;2024-02-04T09:18:45;14.40;;;2.80;;
11384;SDS011;5747;56.748;13.882;2024-02-04T09:21:13;16.03;;;2.90;;
11384;SDS011;5747;56.748;13.882;2024-02-04T09:23:42;19.23;;;3.37;;
11384;SDS011;5747;56.748;13.882;2024-02-04T09:26:10;22.40;;;3.80;;
11384;SDS011;5747;56.748;13.882;2024-02-04T09:28:41;16.60;;;3.60;;
11384;SDS011;5747;56.748;13.882;2024-02-04T09:31:09;17.63;;;3.17;;
11384;SDS011;5747;56.748;13.882;2024-02-04T09:33:39;19.77;;;3.33;;
11384;SDS011;5747;56.748;13.882;2024-02-04T09:36:08;15.33;;;2.93;;
11384;SDS011;5747;56.748;13.882;2024-02-04T09:38:36;15.77;;;3.07;;
11384;SDS011;5747;56.748;13.882;2024-02-04T09:41:05;21.43;;;3.30;;
11384;SDS011;5747;56.748;13.882;2024-02-04T09:43:33;20.10;;;3.23;;
11384;SDS011;5747;56.748;13.882;2024-02-04T09:46:04;16.83;;;3.30;;
11384;SDS011;5747;56.748;13.882;2024-02-04T09:48:33;18.13;;;2.77;;
11384;SDS011;5747;56.748;13.882;2024-02-04T09:51:04;19.83;;;3.53;;
11384;SDS011;5747;56.748;13.882;2024-02-04T09:53:34;21.83;;;3.50;;
11384;SDS011;5747;56.748;13.882;2024-02-04T09:56:04;20.10;;;3.17;;
11384;SDS011;5747;56.748;13.882;2024-02-04T09:58:34;21.77;;;3.93;;
11384;SDS011;5747;56.748;13.882;2024-02-04T10:01:03;25.43;;;3.93;;
11384;SDS011;5747;56.748;13.882;2024-02-04T10:03:35;21.03;;;3.10;;
11384;SDS011;5747;56.748;13.882;2024-02-04T10:06:05;18.53;;;3.80;;
11384;SDS011;5747;56.748;13.882;2024-02-04T10:08:34;20.67;;;3.40;;
11384;SDS011;5747;56.748;13.882;2024-02-04T10:11:04;24.30;;;3.90;;
11384;SDS011;5747;56.748;13.882;2024-02-04T10:13:41;17.00;;;3.63;;
11384;SDS011;5747;56.748;13.882;2024-02-04T10:16:11;21.93;;;3.43;;
11384;SDS011;5747;56.748;13.882;2024-02-04T10:18:41;17.07;;;2.87;;
11384;SDS011;5747;56.748;13.882;2024-02-04T10:21:17;11.83;;;2.23;;
11384;SDS011;5747;56.748;13.882;2024-02-04T10:23:46;16.40;;;2.60;;
11384;SDS011;5747;56.748;13.882;2024-02-04T10:26:15;16.07;;;3.13;;
11384;SDS011;5747;56.748;13.882;2024-02-04T10:28:44;15.23;;;2.33;;
11384;SDS011;5747;56.748;13.882;2024-02-04T10:31:14;10.30;;;2.37;;
11384;SDS011;5747;56.748;13.882;2024-02-04T10:33:43;14.57;;;2.30;;
11384;SDS011;5747;56.748;13.882;2024-02-04T10:36:12;13.83;;;2.80;;
11384;SDS011;5747;56.748;13.882;2024-02-04T10:38:41;11.70;;;2.53;;
11384;SDS011;5747;56.748;13.882;2024-02-04T10:41:10;12.47;;;2.47;;
11384;SDS011;5747;56.748;13.882;2024-02-04T10:43:42;13.07;;;2.70;;
11384;SDS011;5747;56.748;13.882;2024-02-04T10:46:12;18.60;;;2.30;;
11384;SDS011;5747;56.748;13.882;2024-02-04T10:48:45;11.90;;;2.13;;
11384;SDS011;5747;56.748;13.882;2024-02-04T10:51:17;15.40;;;2.43;;
11384;SDS011;5747;56.748;13.882;2024-02-04T10:53:50;14.60;;;2.87;;
11384;SDS011;5747;56.748;13.882;2024-02-04T10:56:22;16.60;;;3.00;;
11384;SDS011;5747;56.748;13.882;2024-02-04T10:58:57;21.23;;;3.90;;
11384;SDS011;5747;56.748;13.882;2024-02-04T11:01:27;19.60;;;3.53;;
11384;SDS011;5747;56.748;13.882;2024-02-04T11:03:56;16.20;;;3.00;;
11384;SDS011;5747;56.748;13.882;2024-02-04T11:06:26;18.33;;;3.67;;
11384;SDS011;5747;56.748;13.882;2024-02-04T11:08:57;22.43;;;2.83;;
11384;SDS011;5747;56.748;13.882;2024-02-04T11:11:27;19.93;;;3.03;;
11384;SDS011;5747;56.748;13.882;2024-02-04T11:13:56;11.87;;;2.33;;
11384;SDS011;5747;56.748;13.882;2024-02-04T11:16:34;17.60;;;3.20;;
11384;SDS011;5747;56.748;13.882;2024-02-04T11:19:23;16.73;;;2.80;;
11384;SDS011;5747;56.748;13.882;2024-02-04T11:22:08;18.33;;;2.60;;
11384;SDS011;5747;56.748;13.882;2024-02-04T11:25:02;14.90;;;3.00;;
11384;SDS011;5747;56.748;13.882;2024-02-04T11:27:46;14.83;;;2.77;;
11384;SDS011;5747;56.748;13.882;2024-02-04T11:30:15;14.17;;;2.93;;
11384;SDS011;5747;56.748;13.882;2024-02-04T11:32:43;15.93;;;3.30;;
11384;SDS011;5747;56.748;13.882;2024-02-04T11:35:12;14.17;;;2.70;;
11384;SDS011;5747;56.748;13.882;2024-02-04T11:37:42;17.37;;;3.50;;
11384;SDS011;5747;56.748;13.882;2024-02-04T11:40:15;16.00;;;2.67;;
11384;SDS011;5747;56.748;13.882;2024-02-04T11:42:45;10.57;;;2.57;;
11384;SDS011;5747;56.748;13.882;2024-02-04T11:45:14;14.60;;;2.57;;
11384;SDS011;5747;56.748;13.882;2024-02-04T11:47:43;20.10;;;3.27;;
11384;SDS011;5747;56.748;13.882;2024-02-04T11:50:11;18.77;;;2.97;;
11384;SDS011;5747;56.748;13.882;2024-02-04T11:52:40;20.63;;;2.67;;
11384;SDS011;5747;56.748;13.882;2024-02-04T11:55:12;19.23;;;3.20;;
11384;SDS011;5747;56.748;13.882;2024-02-04T11:57:43;21.50;;;3.53;;
11384;SDS011;5747;56.748;13.882;2024-02-04T12:00:12;16.03;;;3.27;;
11384;SDS011;5747;56.748;13.882;2024-02-04T12:02:42;16.27;;;2.53;;
11384;SDS011;5747;56.748;13.882;2024-02-04T12:05:11;16.50;;;2.67;;
11384;SDS011;5747;56.748;13.882;2024-02-04T12:07:40;18.30;;;2.43;;
11384;SDS011;5747;56.748;13.882;2024-02-04T12:10:10;13.43;;;2.13;;
11384;SDS011;5747;56.748;13.882;2024-02-04T12:12:40;10.27;;;2.47;;
11384;SDS011;5747;56.748;13.882;2024-02-04T12:15:09;9.13;;;1.73;;
11384;SDS011;5747;56.748;13.882;2024-02-04T12:17:38;12.10;;;2.03;;
11384;SDS011;5747;56.748;13.882;2024-02-04T12:20:06;12.73;;;2.07;;
11384;SDS011;5747;56.748;13.882;2024-02-04T12:22:35;19.47;;;2.83;;
11384;SDS011;5747;56.748;13.882;2024-02-04T12:25:04;11.57;;;1.73;;
11384;SDS011;5747;56.748;13.882;2024-02-04T12:27:34;9.77;;;1.83;;
11384;SDS011;5747;56.748;13.882;2024-02-04T12:30:05;9.63;;;1.57;;
11384;SDS011;5747;56.748;13.882;2024-02-04T12:32:34;9.30;;;1.80;;
11384;SDS011;5747;56.748;13.882;2024-02-04T12:35:05;10.90;;;2.00;;
11384;SDS011;5747;56.748;13.882;2024-02-04T12:37:35;8.27;;;1.33;;
11384;SDS011;5747;56.748;13.882;2024-02-04T12:40:04;8.97;;;1.90;;
11384;SDS011;5747;56.748;13.882;2024-02-04T12:42:33;6.27;;;1.17;;
11384;SDS011;5747;56.748;13.882;2024-02-04T12:45:01;7.60;;;1.57;;
11384;SDS011;5747;56.748;13.882;2024-02-04T12:47:31;6.53;;;1.53;;
11384;SDS011;5747;56.748;13.882;2024-02-04T12:49:59;6.83;;;1.50;;
11384;SDS011;5747;56.748;13.882;2024-02-04T12:52:29;4.13;;;0.83;;
11384;SDS011;5747;56.748;13.882;2024-02-04T12:55:00;4.90;;;1.17;;
11384;SDS011;5747;56.748;13.882;2024-02-04T12:57:29;10.80;;;1.47;;
11384;SDS011;5747;56.748;13.882;2024-02-04T13:00:03;5.90;;;1.40;;
11384;SDS011;5747;56.748;13.882;2024-02-04T13:02:34;11.07;;;1.63;;
11384;SDS011;5747;56.748;13.882;2024-02-04T13:05:02;5.83;;;1.23;;
11384;SDS011;5747;56.748;13.882;2024-02-04T13:07:31;6.33;;;1.47;;
11384;SDS011;5747;56.748;13.882;2024-02-04T13:09:59;5.30;;;1.20;;
11384;SDS011;5747;56.748;13.882;2024-02-04T13:12:28;6.70;;;1.37;;
11384;SDS011;5747;56.748;13.882;2024-02-04T13:14:59;9.77;;;1.73;;
11384;SDS011;5747;56.748;13.882;2024-02-04T13:17:27;5.50;;;1.30;;
11384;SDS011;5747;56.748;13.882;2024-02-04T13:19:57;8.77;;;1.47;;
11384;SDS011;5747;56.748;13.882;2024-02-04T13:22:25;5.60;;;1.50;;
11384;SDS011;5747;56.748;13.882;2024-02-04T13:24:54;6.67;;;1.20;;
11384;SDS011;5747;56.748;13.882;2024-02-04T13:27:22;5.43;;;1.23;;
11384;SDS011;5747;56.748;13.882;2024-02-04T13:29:50;6.53;;;1.40;;
11384;SDS011;5747;56.748;13.882;2024-02-04T13:32:18;6.40;;;1.33;;
11384;SDS011;5747;56.748;13.882;2024-02-04T13:34:46;10.83;;;2.20;;
11384;SDS011;5747;56.748;13.882;2024-02-04T13:37:18;13.10;;;1.80;;
11384;SDS011;5747;56.748;13.882;2024-02-04T13:39:47;10.80;;;1.73;;
11384;SDS011;5747;56.748;13.882;2024-02-04T13:42:15;10.30;;;1.67;;
11384;SDS011;5747;56.748;13.882;2024-02-04T13:44:43;9.23;;;1.67;;
11384;SDS011;5747;56.748;13.882;2024-02-04T13:47:11;12.30;;;1.70;;
11384;SDS011;5747;56.748;13.882;2024-02-04T13:49:40;9.87;;;1.77;;
11384;SDS011;5747;56.748;13.882;2024-02-04T13:52:08;12.63;;;1.93;;
11384;SDS011;5747;56.748;13.882;2024-02-04T13:54:38;8.90;;;1.70;;
11384;SDS011;5747;56.748;13.882;2024-02-04T13:57:06;10.93;;;1.70;;
11384;SDS011;5747;56.748;13.882;2024-02-04T13:59:34;6.70;;;1.47;;
11384;SDS011;5747;56.748;13.882;2024-02-04T14:02:02;12.77;;;1.97;;
11384;SDS011;5747;56.748;13.882;2024-02-04T14:04:31;14.53;;;1.70;;
11384;SDS011;5747;56.748;13.882;2024-02-04T14:07:00;10.43;;;1.83;;
11384;SDS011;5747;56.748;13.882;2024-02-04T14:09:28;9.37;;;2.07;;
11384;SDS011;5747;56.748;13.882;2024-02-04T14:11:58;8.43;;;1.57;;
11384;SDS011;5747;56.748;13.882;2024-02-04T14:14:26;8.90;;;1.97;;
11384;SDS011;5747;56.748;13.882;2024-02-04T14:16:54;6.20;;;1.27;;
11384;SDS011;5747;56.748;13.882;2024-02-04T14:19:22;9.57;;;2.00;;
11384;SDS011;5747;56.748;13.882;2024-02-04T14:21:50;6.63;;;1.30;;
11384;SDS011;5747;56.748;13.882;2024-02-04T14:24:19;11.23;;;1.50;;
11384;SDS011;5747;56.748;13.882;2024-02-04T14:26:47;10.63;;;1.63;;
11384;SDS011;5747;56.748;13.882;2024-02-04T14:29:16;9.63;;;2.27;;
11384;SDS011;5747;56.748;13.882;2024-02-04T14:31:44;8.73;;;1.43;;
11384;SDS011;5747;56.748;13.882;2024-02-04T14:34:13;10.30;;;1.60;;
11384;SDS011;5747;56.748;13.882;2024-02-04T14:36:41;8.57;;;1.50;;
11384;SDS011;5747;56.748;13.882;2024-02-04T14:39:09;10.97;;;1.60;;
11384;SDS011;5747;56.748;13.882;2024-02-04T14:41:37;10.43;;;1.50;;
11384;SDS011;5747;56.748;13.882;2024-02-04T14:44:06;11.40;;;2.10;;
11384;SDS011;5747;56.748;13.882;2024-02-04T14:46:36;9.57;;;1.63;;